sensor_id;sensor_type;location;lat;lon;timestamp;P1;durP1;ratioP1;P2;durP2;ratioP2
44137;SDS011;29800;55.942;37.314;2023-07-31T00:00:47;8.20;;;3.88;;
44137;SDS011;29800;55.942;37.314;2023-07-31T00:03:13;10.55;;;3.78;;
44137;SDS011;29800;55.942;37.314;2023-07-31T00:05:40;14.07;;;4.30;;
44137;SDS011;29800;55.942;37.314;2023-07-31T00:08:06;6.95;;;3.97;;
44137;SDS011;29800;55.942;37.314;2023-07-31T00:10:32;9.48;;;4.05;;
44137;SDS011;29800;55.942;37.314;2023-07-31T00:12:59;8.27;;;3.88;;
44137;SDS011;29800;55.942;37.314;2023-07-31T00:15:25;10.35;;;4.07;;
44137;SDS011;29800;55.942;37.314;2023-07-31T00:17:51;12.18;;;4.00;;
44137;SDS011;29800;55.942;37.314;2023-07-31T00:20:18;9.10;;;4.13;;
44137;SDS011;29800;55.942;37.314;2023-07-31T00:22:44;9.55;;;4.18;;
44137;SDS011;29800;55.942;37.314;2023-07-31T00:25:10;7.63;;;3.75;;
44137;SDS011;29800;55.942;37.314;2023-07-31T00:27:36;5.90;;;3.78;;
44137;SDS011;29800;55.942;37.314;2023-07-31T00:30:04;7.72;;;3.75;;
44137;SDS011;29800;55.942;37.314;2023-07-31T00:32:33;9.10;;;3.78;;
44137;SDS011;29800;55.942;37.314;2023-07-31T00:34:59;8.88;;;4.00;;
44137;SDS011;29800;55.942;37.314;2023-07-31T00:37:25;8.20;;;4.50;;
44137;SDS011;29800;55.942;37.314;2023-07-31T00:39:52;12.52;;;4.80;;
44137;SDS011;29800;55.942;37.314;2023-07-31T00:42:18;7.38;;;4.20;;
44137;SDS011;29800;55.942;37.314;2023-07-31T00:44:44;11.88;;;6.70;;
44137;SDS011;29800;55.942;37.314;2023-07-31T00:47:10;12.68;;;6.32;;
44137;SDS011;29800;55.942;37.314;2023-07-31T00:49:37;15.90;;;6.70;;
44137;SDS011;29800;55.942;37.314;2023-07-31T00:52:03;14.35;;;5.32;;
44137;SDS011;29800;55.942;37.314;2023-07-31T00:54:30;12.38;;;6.78;;
44137;SDS011;29800;55.942;37.314;2023-07-31T00:56:57;8.25;;;5.50;;
44137;SDS011;29800;55.942;37.314;2023-07-31T00:59:23;12.40;;;5.50;;
44137;SDS011;29800;55.942;37.314;2023-07-31T01:01:50;10.18;;;5.20;;
44137;SDS011;29800;55.942;37.314;2023-07-31T01:04:17;7.30;;;4.32;;
44137;SDS011;29800;55.942;37.314;2023-07-31T01:11:57;7.95;;;4.22;;
44137;SDS011;29800;55.942;37.314;2023-07-31T01:14:28;9.35;;;3.78;;
44137;SDS011;29800;55.942;37.314;2023-07-31T01:16:55;7.22;;;4.00;;
44137;SDS011;29800;55.942;37.314;2023-07-31T01:19:22;6.20;;;3.95;;
44137;SDS011;29800;55.942;37.314;2023-07-31T01:21:58;10.82;;;4.13;;
44137;SDS011;29800;55.942;37.314;2023-07-31T01:24:47;9.27;;;3.70;;
44137;SDS011;29800;55.942;37.314;2023-07-31T01:27:34;8.63;;;3.90;;
44137;SDS011;29800;55.942;37.314;2023-07-31T01:30:08;7.25;;;3.50;;
44137;SDS011;29800;55.942;37.314;2023-07-31T01:32:43;8.95;;;4.00;;
44137;SDS011;29800;55.942;37.314;2023-07-31T01:35:13;10.05;;;3.83;;
44137;SDS011;29800;55.942;37.314;2023-07-31T01:37:40;9.73;;;3.67;;
44137;SDS011;29800;55.942;37.314;2023-07-31T01:40:08;7.28;;;3.40;;
44137;SDS011;29800;55.942;37.314;2023-07-31T01:42:34;9.57;;;4.10;;
44137;SDS011;29800;55.942;37.314;2023-07-31T01:45:01;7.45;;;3.50;;
44137;SDS011;29800;55.942;37.314;2023-07-31T01:47:30;7.65;;;3.83;;
44137;SDS011;29800;55.942;37.314;2023-07-31T01:49:56;6.55;;;3.53;;
44137;SDS011;29800;55.942;37.314;2023-07-31T01:52:22;6.25;;;3.33;;
44137;SDS011;29800;55.942;37.314;2023-07-31T01:54:49;7.32;;;3.47;;
44137;SDS011;29800;55.942;37.314;2023-07-31T01:57:15;7.95;;;3.70;;
44137;SDS011;29800;55.942;37.314;2023-07-31T01:59:42;8.73;;;3.70;;
44137;SDS011;29800;55.942;37.314;2023-07-31T02:02:10;7.97;;;3.50;;
44137;SDS011;29800;55.942;37.314;2023-07-31T02:04:36;9.20;;;3.53;;
44137;SDS011;29800;55.942;37.314;2023-07-31T02:07:04;6.40;;;3.28;;
44137;SDS011;29800;55.942;37.314;2023-07-31T02:09:31;11.77;;;3.88;;
44137;SDS011;29800;55.942;37.314;2023-07-31T02:11:58;7.22;;;4.03;;
44137;SDS011;29800;55.942;37.314;2023-07-31T02:14:25;8.10;;;3.40;;
44137;SDS011;29800;55.942;37.314;2023-07-31T02:16:51;9.48;;;3.60;;
44137;SDS011;29800;55.942;37.314;2023-07-31T02:19:18;8.20;;;3.35;;
44137;SDS011;29800;55.942;37.314;2023-07-31T02:21:44;6.10;;;3.50;;
44137;SDS011;29800;55.942;37.314;2023-07-31T02:24:11;5.68;;;3.45;;
44137;SDS011;29800;55.942;37.314;2023-07-31T02:26:37;7.55;;;3.95;;
44137;SDS011;29800;55.942;37.314;2023-07-31T02:29:04;8.45;;;3.65;;
44137;SDS011;29800;55.942;37.314;2023-07-31T02:31:30;9.15;;;3.42;;
44137;SDS011;29800;55.942;37.314;2023-07-31T02:33:56;6.45;;;3.50;;
44137;SDS011;29800;55.942;37.314;2023-07-31T02:36:23;9.68;;;3.22;;
44137;SDS011;29800;55.942;37.314;2023-07-31T02:38:49;8.00;;;3.63;;
44137;SDS011;29800;55.942;37.314;2023-07-31T02:41:15;5.70;;;3.17;;
44137;SDS011;29800;55.942;37.314;2023-07-31T02:43:42;7.63;;;3.47;;
44137;SDS011;29800;55.942;37.314;2023-07-31T02:46:08;6.03;;;3.13;;
44137;SDS011;29800;55.942;37.314;2023-07-31T02:48:34;8.18;;;3.78;;
44137;SDS011;29800;55.942;37.314;2023-07-31T02:51:00;8.48;;;3.78;;
44137;SDS011;29800;55.942;37.314;2023-07-31T02:53:27;9.85;;;3.55;;
44137;SDS011;29800;55.942;37.314;2023-07-31T02:55:53;6.72;;;3.40;;
44137;SDS011;29800;55.942;37.314;2023-07-31T02:58:19;6.72;;;3.55;;
44137;SDS011;29800;55.942;37.314;2023-07-31T03:00:46;6.85;;;3.50;;
44137;SDS011;29800;55.942;37.314;2023-07-31T03:03:12;9.40;;;3.50;;
44137;SDS011;29800;55.942;37.314;2023-07-31T03:05:39;7.78;;;3.28;;
44137;SDS011;29800;55.942;37.314;2023-07-31T03:08:05;7.28;;;3.50;;
44137;SDS011;29800;55.942;37.314;2023-07-31T03:10:31;8.35;;;3.45;;
44137;SDS011;29800;55.942;37.314;2023-07-31T03:12:58;8.80;;;3.58;;
44137;SDS011;29800;55.942;37.314;2023-07-31T03:15:25;6.75;;;2.95;;
44137;SDS011;29800;55.942;37.314;2023-07-31T03:17:51;8.35;;;3.50;;
44137;SDS011;29800;55.942;37.314;2023-07-31T03:20:17;9.95;;;3.30;;
44137;SDS011;29800;55.942;37.314;2023-07-31T03:22:44;8.75;;;3.22;;
44137;SDS011;29800;55.942;37.314;2023-07-31T03:25:10;7.93;;;3.38;;
44137;SDS011;29800;55.942;37.314;2023-07-31T03:27:37;12.27;;;3.42;;
44137;SDS011;29800;55.942;37.314;2023-07-31T03:30:03;10.07;;;3.50;;
44137;SDS011;29800;55.942;37.314;2023-07-31T03:32:32;9.65;;;3.47;;
44137;SDS011;29800;55.942;37.314;2023-07-31T03:34:58;9.60;;;3.70;;
44137;SDS011;29800;55.942;37.314;2023-07-31T03:37:25;9.38;;;3.90;;
44137;SDS011;29800;55.942;37.314;2023-07-31T03:39:52;7.80;;;3.83;;
44137;SDS011;29800;55.942;37.314;2023-07-31T03:42:19;8.43;;;3.10;;
44137;SDS011;29800;55.942;37.314;2023-07-31T03:44:45;7.93;;;3.00;;
44137;SDS011;29800;55.942;37.314;2023-07-31T03:47:12;9.15;;;3.40;;
44137;SDS011;29800;55.942;37.314;2023-07-31T03:49:38;10.18;;;3.03;;
44137;SDS011;29800;55.942;37.314;2023-07-31T03:52:04;7.00;;;3.05;;
44137;SDS011;29800;55.942;37.314;2023-07-31T03:54:31;8.18;;;3.10;;
44137;SDS011;29800;55.942;37.314;2023-07-31T03:56:57;9.35;;;3.15;;
44137;SDS011;29800;55.942;37.314;2023-07-31T03:59:24;8.48;;;2.75;;
44137;SDS011;29800;55.942;37.314;2023-07-31T04:01:50;9.98;;;3.10;;
44137;SDS011;29800;55.942;37.314;2023-07-31T04:04:16;4.47;;;2.50;;
44137;SDS011;29800;55.942;37.314;2023-07-31T04:06:43;4.80;;;2.83;;
44137;SDS011;29800;55.942;37.314;2023-07-31T04:09:09;6.60;;;3.00;;
44137;SDS011;29800;55.942;37.314;2023-07-31T04:11:35;6.45;;;2.60;;
44137;SDS011;29800;55.942;37.314;2023-07-31T04:14:01;7.93;;;2.90;;
44137;SDS011;29800;55.942;37.314;2023-07-31T04:16:28;5.03;;;2.88;;
44137;SDS011;29800;55.942;37.314;2023-07-31T04:18:54;5.05;;;3.08;;
44137;SDS011;29800;55.942;37.314;2023-07-31T04:21:20;10.57;;;3.42;;
44137;SDS011;29800;55.942;37.314;2023-07-31T04:23:47;6.75;;;3.10;;
44137;SDS011;29800;55.942;37.314;2023-07-31T04:26:13;11.23;;;3.67;;
44137;SDS011;29800;55.942;37.314;2023-07-31T04:28:39;6.97;;;3.00;;
44137;SDS011;29800;55.942;37.314;2023-07-31T04:31:06;8.02;;;3.40;;
44137;SDS011;29800;55.942;37.314;2023-07-31T04:33:32;5.45;;;2.78;;
44137;SDS011;29800;55.942;37.314;2023-07-31T04:35:59;17.92;;;5.10;;
44137;SDS011;29800;55.942;37.314;2023-07-31T04:38:26;12.38;;;4.55;;
44137;SDS011;29800;55.942;37.314;2023-07-31T04:40:52;7.45;;;3.30;;
44137;SDS011;29800;55.942;37.314;2023-07-31T04:43:19;7.43;;;3.40;;
44137;SDS011;29800;55.942;37.314;2023-07-31T04:45:45;6.97;;;3.55;;
44137;SDS011;29800;55.942;37.314;2023-07-31T04:48:16;6.60;;;3.05;;
44137;SDS011;29800;55.942;37.314;2023-07-31T04:50:42;6.80;;;2.70;;
44137;SDS011;29800;55.942;37.314;2023-07-31T04:53:08;9.20;;;2.80;;
44137;SDS011;29800;55.942;37.314;2023-07-31T04:55:34;7.50;;;2.50;;
44137;SDS011;29800;55.942;37.314;2023-07-31T04:58:01;8.55;;;2.20;;
44137;SDS011;29800;55.942;37.314;2023-07-31T05:00:27;8.07;;;2.42;;
44137;SDS011;29800;55.942;37.314;2023-07-31T05:02:53;5.72;;;2.10;;
44137;SDS011;29800;55.942;37.314;2023-07-31T05:05:20;4.72;;;2.03;;
44137;SDS011;29800;55.942;37.314;2023-07-31T05:07:46;5.20;;;2.40;;
44137;SDS011;29800;55.942;37.314;2023-07-31T05:10:13;3.22;;;1.75;;
44137;SDS011;29800;55.942;37.314;2023-07-31T05:12:39;6.15;;;2.38;;
44137;SDS011;29800;55.942;37.314;2023-07-31T05:15:05;4.85;;;2.38;;
44137;SDS011;29800;55.942;37.314;2023-07-31T05:17:32;10.23;;;2.72;;
44137;SDS011;29800;55.942;37.314;2023-07-31T05:19:58;5.10;;;2.08;;
44137;SDS011;29800;55.942;37.314;2023-07-31T05:22:25;5.45;;;2.00;;
44137;SDS011;29800;55.942;37.314;2023-07-31T05:24:51;6.38;;;2.28;;
44137;SDS011;29800;55.942;37.314;2023-07-31T05:27:19;6.43;;;1.80;;
44137;SDS011;29800;55.942;37.314;2023-07-31T05:29:46;5.20;;;2.00;;
44137;SDS011;29800;55.942;37.314;2023-07-31T05:32:12;8.35;;;2.45;;
44137;SDS011;29800;55.942;37.314;2023-07-31T05:34:38;6.68;;;2.00;;
44137;SDS011;29800;55.942;37.314;2023-07-31T05:37:04;6.53;;;2.00;;
44137;SDS011;29800;55.942;37.314;2023-07-31T05:39:31;3.78;;;1.73;;
44137;SDS011;29800;55.942;37.314;2023-07-31T05:41:58;8.32;;;1.90;;
44137;SDS011;29800;55.942;37.314;2023-07-31T05:44:24;5.93;;;2.20;;
44137;SDS011;29800;55.942;37.314;2023-07-31T05:46:50;3.85;;;1.60;;
44137;SDS011;29800;55.942;37.314;2023-07-31T05:49:16;4.05;;;1.90;;
44137;SDS011;29800;55.942;37.314;2023-07-31T05:51:43;6.70;;;2.00;;
44137;SDS011;29800;55.942;37.314;2023-07-31T05:54:09;5.22;;;1.60;;
44137;SDS011;29800;55.942;37.314;2023-07-31T05:56:35;7.10;;;1.90;;
44137;SDS011;29800;55.942;37.314;2023-07-31T05:59:01;7.22;;;1.50;;
44137;SDS011;29800;55.942;37.314;2023-07-31T06:01:28;3.38;;;1.50;;
44137;SDS011;29800;55.942;37.314;2023-07-31T06:03:54;3.97;;;1.50;;
44137;SDS011;29800;55.942;37.314;2023-07-31T06:06:21;4.50;;;1.88;;
44137;SDS011;29800;55.942;37.314;2023-07-31T06:08:47;5.82;;;1.58;;
44137;SDS011;29800;55.942;37.314;2023-07-31T06:11:13;2.13;;;1.40;;
44137;SDS011;29800;55.942;37.314;2023-07-31T06:13:40;5.38;;;1.85;;
44137;SDS011;29800;55.942;37.314;2023-07-31T06:16:06;6.15;;;1.58;;
44137;SDS011;29800;55.942;37.314;2023-07-31T06:18:33;4.95;;;1.75;;
44137;SDS011;29800;55.942;37.314;2023-07-31T06:20:59;5.45;;;1.80;;
44137;SDS011;29800;55.942;37.314;2023-07-31T06:23:26;2.60;;;1.27;;
44137;SDS011;29800;55.942;37.314;2023-07-31T06:25:52;3.00;;;1.33;;
44137;SDS011;29800;55.942;37.314;2023-07-31T06:28:19;3.38;;;1.70;;
44137;SDS011;29800;55.942;37.314;2023-07-31T06:30:45;3.38;;;1.50;;
44137;SDS011;29800;55.942;37.314;2023-07-31T06:33:11;3.95;;;1.73;;
44137;SDS011;29800;55.942;37.314;2023-07-31T06:35:38;6.75;;;1.35;;
44137;SDS011;29800;55.942;37.314;2023-07-31T06:38:04;4.88;;;2.03;;
44137;SDS011;29800;55.942;37.314;2023-07-31T06:40:30;3.15;;;1.65;;
44137;SDS011;29800;55.942;37.314;2023-07-31T06:42:57;3.72;;;1.23;;
44137;SDS011;29800;55.942;37.314;2023-07-31T06:45:23;8.10;;;2.05;;
44137;SDS011;29800;55.942;37.314;2023-07-31T06:47:49;3.58;;;1.60;;
44137;SDS011;29800;55.942;37.314;2023-07-31T06:50:16;4.18;;;1.23;;
44137;SDS011;29800;55.942;37.314;2023-07-31T06:52:42;3.30;;;1.20;;
44137;SDS011;29800;55.942;37.314;2023-07-31T06:55:18;2.53;;;1.25;;
44137;SDS011;29800;55.942;37.314;2023-07-31T06:57:47;1.48;;;1.00;;
44137;SDS011;29800;55.942;37.314;2023-07-31T07:00:15;4.03;;;1.45;;
44137;SDS011;29800;55.942;37.314;2023-07-31T07:02:43;2.65;;;1.30;;
44137;SDS011;29800;55.942;37.314;2023-07-31T07:05:09;1.75;;;1.00;;
44137;SDS011;29800;55.942;37.314;2023-07-31T07:07:35;4.38;;;1.02;;
44137;SDS011;29800;55.942;37.314;2023-07-31T07:10:02;4.68;;;1.33;;
44137;SDS011;29800;55.942;37.314;2023-07-31T07:12:31;1.73;;;1.10;;
44137;SDS011;29800;55.942;37.314;2023-07-31T07:14:59;2.83;;;1.10;;
44137;SDS011;29800;55.942;37.314;2023-07-31T07:17:27;5.68;;;1.30;;
44137;SDS011;29800;55.942;37.314;2023-07-31T07:19:55;2.40;;;1.10;;
44137;SDS011;29800;55.942;37.314;2023-07-31T07:22:21;3.30;;;1.40;;
44137;SDS011;29800;55.942;37.314;2023-07-31T07:24:47;2.20;;;1.20;;
44137;SDS011;29800;55.942;37.314;2023-07-31T07:27:14;2.30;;;1.30;;
44137;SDS011;29800;55.942;37.314;2023-07-31T07:29:40;2.58;;;1.20;;
44137;SDS011;29800;55.942;37.314;2023-07-31T07:32:07;1.63;;;1.00;;
44137;SDS011;29800;55.942;37.314;2023-07-31T07:34:35;2.28;;;1.20;;
44137;SDS011;29800;55.942;37.314;2023-07-31T07:37:01;1.70;;;1.05;;
44137;SDS011;29800;55.942;37.314;2023-07-31T07:39:27;2.55;;;1.20;;
44137;SDS011;29800;55.942;37.314;2023-07-31T07:41:53;2.20;;;1.17;;
44137;SDS011;29800;55.942;37.314;2023-07-31T07:44:20;1.70;;;1.00;;
44137;SDS011;29800;55.942;37.314;2023-07-31T07:46:46;3.17;;;1.23;;
44137;SDS011;29800;55.942;37.314;2023-07-31T07:49:12;3.95;;;1.30;;
44137;SDS011;29800;55.942;37.314;2023-07-31T07:51:39;5.15;;;1.80;;
44137;SDS011;29800;55.942;37.314;2023-07-31T07:54:05;1.95;;;1.15;;
44137;SDS011;29800;55.942;37.314;2023-07-31T07:56:32;3.80;;;1.08;;
44137;SDS011;29800;55.942;37.314;2023-07-31T07:58:59;3.72;;;1.30;;
44137;SDS011;29800;55.942;37.314;2023-07-31T08:01:25;4.32;;;1.58;;
44137;SDS011;29800;55.942;37.314;2023-07-31T08:03:51;4.25;;;1.45;;
44137;SDS011;29800;55.942;37.314;2023-07-31T08:06:18;2.88;;;1.50;;
44137;SDS011;29800;55.942;37.314;2023-07-31T08:08:44;11.35;;;1.23;;
44137;SDS011;29800;55.942;37.314;2023-07-31T08:11:10;2.58;;;1.10;;
44137;SDS011;29800;55.942;37.314;2023-07-31T08:13:36;4.80;;;1.42;;
44137;SDS011;29800;55.942;37.314;2023-07-31T08:16:04;4.07;;;1.33;;
44137;SDS011;29800;55.942;37.314;2023-07-31T08:18:31;3.30;;;1.40;;
44137;SDS011;29800;55.942;37.314;2023-07-31T08:20:58;4.95;;;1.25;;
44137;SDS011;29800;55.942;37.314;2023-07-31T08:23:24;3.38;;;1.30;;
44137;SDS011;29800;55.942;37.314;2023-07-31T08:25:51;3.17;;;1.40;;
44137;SDS011;29800;55.942;37.314;2023-07-31T08:28:17;1.95;;;1.20;;
44137;SDS011;29800;55.942;37.314;2023-07-31T08:30:43;1.52;;;1.08;;
44137;SDS011;29800;55.942;37.314;2023-07-31T08:33:10;1.42;;;0.85;;
44137;SDS011;29800;55.942;37.314;2023-07-31T08:35:36;2.72;;;1.45;;
44137;SDS011;29800;55.942;37.314;2023-07-31T08:38:03;2.97;;;1.40;;
44137;SDS011;29800;55.942;37.314;2023-07-31T08:40:29;4.65;;;1.55;;
44137;SDS011;29800;55.942;37.314;2023-07-31T08:42:56;4.72;;;1.85;;
44137;SDS011;29800;55.942;37.314;2023-07-31T08:45:24;1.98;;;1.40;;
44137;SDS011;29800;55.942;37.314;2023-07-31T08:47:51;2.33;;;1.20;;
44137;SDS011;29800;55.942;37.314;2023-07-31T08:50:18;2.42;;;1.40;;
44137;SDS011;29800;55.942;37.314;2023-07-31T08:52:46;2.28;;;1.10;;
44137;SDS011;29800;55.942;37.314;2023-07-31T08:55:14;2.70;;;1.20;;
44137;SDS011;29800;55.942;37.314;2023-07-31T08:57:41;3.53;;;1.33;;
44137;SDS011;29800;55.942;37.314;2023-07-31T09:00:09;2.78;;;1.20;;
44137;SDS011;29800;55.942;37.314;2023-07-31T09:02:38;1.88;;;1.27;;
44137;SDS011;29800;55.942;37.314;2023-07-31T09:05:25;2.83;;;1.40;;
44137;SDS011;29800;55.942;37.314;2023-07-31T09:07:52;2.47;;;1.30;;
44137;SDS011;29800;55.942;37.314;2023-07-31T09:10:22;2.03;;;1.30;;
44137;SDS011;29800;55.942;37.314;2023-07-31T09:12:48;4.40;;;1.27;;
44137;SDS011;29800;55.942;37.314;2023-07-31T09:15:16;2.47;;;1.40;;
44137;SDS011;29800;55.942;37.314;2023-07-31T09:17:43;2.53;;;1.30;;
44137;SDS011;29800;55.942;37.314;2023-07-31T09:20:13;2.03;;;1.35;;
44137;SDS011;29800;55.942;37.314;2023-07-31T09:22:42;3.88;;;2.15;;
44137;SDS011;29800;55.942;37.314;2023-07-31T09:25:17;3.00;;;1.20;;
44137;SDS011;29800;55.942;37.314;2023-07-31T09:27:46;3.33;;;1.40;;
44137;SDS011;29800;55.942;37.314;2023-07-31T09:30:26;4.70;;;1.50;;
44137;SDS011;29800;55.942;37.314;2023-07-31T09:33:02;3.33;;;1.50;;
44137;SDS011;29800;55.942;37.314;2023-07-31T09:35:33;3.40;;;1.50;;
44137;SDS011;29800;55.942;37.314;2023-07-31T09:38:02;2.83;;;1.27;;
44137;SDS011;29800;55.942;37.314;2023-07-31T09:40:34;3.00;;;1.58;;
44137;SDS011;29800;55.942;37.314;2023-07-31T09:43:06;2.70;;;1.38;;
44137;SDS011;29800;55.942;37.314;2023-07-31T09:45:40;2.70;;;1.58;;
44137;SDS011;29800;55.942;37.314;2023-07-31T09:48:09;4.25;;;1.55;;
44137;SDS011;29800;55.942;37.314;2023-07-31T09:50:37;2.75;;;1.50;;
44137;SDS011;29800;55.942;37.314;2023-07-31T09:53:05;3.05;;;1.38;;
44137;SDS011;29800;55.942;37.314;2023-07-31T09:55:33;2.95;;;1.70;;
44137;SDS011;29800;55.942;37.314;2023-07-31T09:58:03;3.20;;;1.50;;
44137;SDS011;29800;55.942;37.314;2023-07-31T10:00:31;4.30;;;1.65;;
44137;SDS011;29800;55.942;37.314;2023-07-31T10:02:59;3.28;;;1.77;;
44137;SDS011;29800;55.942;37.314;2023-07-31T10:06:09;2.80;;;1.20;;
44137;SDS011;29800;55.942;37.314;2023-07-31T10:08:18;2.80;;;1.35;;
44137;SDS011;29800;55.942;37.314;2023-07-31T10:10:45;4.30;;;1.70;;
44137;SDS011;29800;55.942;37.314;2023-07-31T10:13:12;2.90;;;1.60;;
44137;SDS011;29800;55.942;37.314;2023-07-31T10:15:40;6.47;;;3.40;;
44137;SDS011;29800;55.942;37.314;2023-07-31T10:18:09;4.78;;;1.75;;
44137;SDS011;29800;55.942;37.314;2023-07-31T10:20:36;8.40;;;1.80;;
44137;SDS011;29800;55.942;37.314;2023-07-31T10:23:03;4.10;;;1.83;;
44137;SDS011;29800;55.942;37.314;2023-07-31T10:25:29;3.33;;;1.92;;
44137;SDS011;29800;55.942;37.314;2023-07-31T10:27:57;5.63;;;2.20;;
44137;SDS011;29800;55.942;37.314;2023-07-31T10:30:26;6.03;;;3.80;;
44137;SDS011;29800;55.942;37.314;2023-07-31T10:32:55;7.60;;;4.15;;
44137;SDS011;29800;55.942;37.314;2023-07-31T10:35:23;7.25;;;2.90;;
44137;SDS011;29800;55.942;37.314;2023-07-31T10:37:49;4.00;;;2.00;;
44137;SDS011;29800;55.942;37.314;2023-07-31T10:40:24;4.15;;;2.20;;
44137;SDS011;29800;55.942;37.314;2023-07-31T10:42:53;2.67;;;1.52;;
44137;SDS011;29800;55.942;37.314;2023-07-31T10:45:42;4.50;;;1.60;;
44137;SDS011;29800;55.942;37.314;2023-07-31T10:48:12;4.05;;;1.90;;
44137;SDS011;29800;55.942;37.314;2023-07-31T10:53:23;3.00;;;1.67;;
44137;SDS011;29800;55.942;37.314;2023-07-31T10:55:59;5.75;;;2.33;;
44137;SDS011;29800;55.942;37.314;2023-07-31T10:58:30;3.53;;;2.03;;
44137;SDS011;29800;55.942;37.314;2023-07-31T11:01:01;4.22;;;1.67;;
44137;SDS011;29800;55.942;37.314;2023-07-31T11:06:15;5.63;;;1.80;;
44137;SDS011;29800;55.942;37.314;2023-07-31T11:08:43;3.92;;;1.75;;
44137;SDS011;29800;55.942;37.314;2023-07-31T11:11:12;4.63;;;1.70;;
44137;SDS011;29800;55.942;37.314;2023-07-31T11:13:40;2.78;;;1.38;;
44137;SDS011;29800;55.942;37.314;2023-07-31T11:16:21;4.82;;;1.45;;
44137;SDS011;29800;55.942;37.314;2023-07-31T11:18:51;3.33;;;1.70;;
44137;SDS011;29800;55.942;37.314;2023-07-31T11:21:20;3.58;;;1.50;;
44137;SDS011;29800;55.942;37.314;2023-07-31T11:23:50;3.35;;;1.70;;
44137;SDS011;29800;55.942;37.314;2023-07-31T11:26:18;3.05;;;1.60;;
44137;SDS011;29800;55.942;37.314;2023-07-31T11:28:48;2.90;;;1.70;;
44137;SDS011;29800;55.942;37.314;2023-07-31T11:31:15;2.83;;;1.70;;
44137;SDS011;29800;55.942;37.314;2023-07-31T11:33:43;4.93;;;1.90;;
44137;SDS011;29800;55.942;37.314;2023-07-31T11:36:16;2.85;;;1.85;;
44137;SDS011;29800;55.942;37.314;2023-07-31T11:38:43;3.65;;;1.90;;
44137;SDS011;29800;55.942;37.314;2023-07-31T11:41:10;3.70;;;1.70;;
44137;SDS011;29800;55.942;37.314;2023-07-31T11:43:39;3.95;;;1.80;;
44137;SDS011;29800;55.942;37.314;2023-07-31T11:46:05;4.18;;;1.60;;
44137;SDS011;29800;55.942;37.314;2023-07-31T11:48:35;4.25;;;1.70;;
44137;SDS011;29800;55.942;37.314;2023-07-31T11:51:04;4.07;;;1.70;;
44137;SDS011;29800;55.942;37.314;2023-07-31T11:55:58;3.30;;;1.80;;
44137;SDS011;29800;55.942;37.314;2023-07-31T11:58:26;4.57;;;2.17;;
44137;SDS011;29800;55.942;37.314;2023-07-31T12:00:54;2.70;;;1.75;;
44137;SDS011;29800;55.942;37.314;2023-07-31T12:03:22;4.80;;;2.00;;
44137;SDS011;29800;55.942;37.314;2023-07-31T12:05:49;4.13;;;2.20;;
44137;SDS011;29800;55.942;37.314;2023-07-31T12:08:15;4.93;;;2.40;;
44137;SDS011;29800;55.942;37.314;2023-07-31T12:10:42;5.95;;;3.53;;
44137;SDS011;29800;55.942;37.314;2023-07-31T12:13:10;5.40;;;2.35;;
44137;SDS011;29800;55.942;37.314;2023-07-31T12:15:42;4.50;;;2.10;;
44137;SDS011;29800;55.942;37.314;2023-07-31T12:18:10;4.97;;;2.22;;
44137;SDS011;29800;55.942;37.314;2023-07-31T12:20:42;5.28;;;2.03;;
44137;SDS011;29800;55.942;37.314;2023-07-31T12:23:20;7.35;;;2.58;;
44137;SDS011;29800;55.942;37.314;2023-07-31T12:26:05;2.70;;;1.90;;
44137;SDS011;29800;55.942;37.314;2023-07-31T12:28:43;6.22;;;1.90;;
44137;SDS011;29800;55.942;37.314;2023-07-31T12:31:15;4.00;;;1.70;;
44137;SDS011;29800;55.942;37.314;2023-07-31T12:33:46;4.85;;;1.60;;
44137;SDS011;29800;55.942;37.314;2023-07-31T12:36:16;4.15;;;1.80;;
44137;SDS011;29800;55.942;37.314;2023-07-31T12:38:46;3.15;;;1.77;;
44137;SDS011;29800;55.942;37.314;2023-07-31T12:41:12;3.97;;;1.70;;
44137;SDS011;29800;55.942;37.314;2023-07-31T12:43:40;4.20;;;2.00;;
44137;SDS011;29800;55.942;37.314;2023-07-31T12:46:08;7.30;;;2.60;;
44137;SDS011;29800;55.942;37.314;2023-07-31T12:48:34;4.05;;;1.83;;
44137;SDS011;29800;55.942;37.314;2023-07-31T12:51:01;5.50;;;1.92;;
44137;SDS011;29800;55.942;37.314;2023-07-31T12:53:28;3.88;;;1.95;;
44137;SDS011;29800;55.942;37.314;2023-07-31T12:55:55;4.55;;;1.63;;
44137;SDS011;29800;55.942;37.314;2023-07-31T12:58:23;4.03;;;1.80;;
44137;SDS011;29800;55.942;37.314;2023-07-31T13:00:49;6.60;;;1.83;;
44137;SDS011;29800;55.942;37.314;2023-07-31T13:03:15;3.53;;;1.65;;
44137;SDS011;29800;55.942;37.314;2023-07-31T13:05:42;4.97;;;1.80;;
44137;SDS011;29800;55.942;37.314;2023-07-31T13:08:08;4.70;;;1.90;;
44137;SDS011;29800;55.942;37.314;2023-07-31T13:10:34;3.17;;;1.70;;
44137;SDS011;29800;55.942;37.314;2023-07-31T13:13:00;4.90;;;1.77;;
44137;SDS011;29800;55.942;37.314;2023-07-31T13:15:27;2.75;;;1.73;;
44137;SDS011;29800;55.942;37.314;2023-07-31T13:17:53;2.85;;;1.60;;
44137;SDS011;29800;55.942;37.314;2023-07-31T13:20:21;5.53;;;2.22;;
44137;SDS011;29800;55.942;37.314;2023-07-31T13:22:47;2.90;;;1.65;;
44137;SDS011;29800;55.942;37.314;2023-07-31T13:25:13;5.47;;;1.92;;
44137;SDS011;29800;55.942;37.314;2023-07-31T13:27:39;4.22;;;1.70;;
44137;SDS011;29800;55.942;37.314;2023-07-31T13:30:06;4.30;;;1.98;;
44137;SDS011;29800;55.942;37.314;2023-07-31T13:32:33;5.43;;;1.95;;
44137;SDS011;29800;55.942;37.314;2023-07-31T13:34:59;4.47;;;1.88;;
44137;SDS011;29800;55.942;37.314;2023-07-31T13:37:26;3.58;;;2.17;;
44137;SDS011;29800;55.942;37.314;2023-07-31T13:39:52;4.35;;;2.35;;
44137;SDS011;29800;55.942;37.314;2023-07-31T13:42:18;4.13;;;2.28;;
44137;SDS011;29800;55.942;37.314;2023-07-31T13:44:45;3.80;;;2.00;;
44137;SDS011;29800;55.942;37.314;2023-07-31T13:47:11;7.85;;;1.90;;
44137;SDS011;29800;55.942;37.314;2023-07-31T13:49:37;3.47;;;1.83;;
44137;SDS011;29800;55.942;37.314;2023-07-31T13:52:04;3.95;;;2.00;;
44137;SDS011;29800;55.942;37.314;2023-07-31T13:54:31;3.85;;;1.80;;
44137;SDS011;29800;55.942;37.314;2023-07-31T13:56:58;6.82;;;2.00;;
44137;SDS011;29800;55.942;37.314;2023-07-31T13:59:24;3.45;;;1.85;;
44137;SDS011;29800;55.942;37.314;2023-07-31T14:01:50;7.05;;;2.00;;
44137;SDS011;29800;55.942;37.314;2023-07-31T14:04:17;5.05;;;2.33;;
44137;SDS011;29800;55.942;37.314;2023-07-31T14:06:43;3.75;;;2.08;;
44137;SDS011;29800;55.942;37.314;2023-07-31T14:09:10;7.07;;;2.22;;
44137;SDS011;29800;55.942;37.314;2023-07-31T14:11:36;4.82;;;2.00;;
44137;SDS011;29800;55.942;37.314;2023-07-31T14:14:03;4.55;;;2.20;;
44137;SDS011;29800;55.942;37.314;2023-07-31T14:16:30;5.20;;;2.17;;
44137;SDS011;29800;55.942;37.314;2023-07-31T14:18:56;4.50;;;1.90;;
44137;SDS011;29800;55.942;37.314;2023-07-31T14:21:25;5.18;;;2.60;;
44137;SDS011;29800;55.942;37.314;2023-07-31T14:23:51;5.82;;;2.08;;
44137;SDS011;29800;55.942;37.314;2023-07-31T14:26:18;3.40;;;1.98;;
44137;SDS011;29800;55.942;37.314;2023-07-31T14:28:45;4.53;;;2.10;;
44137;SDS011;29800;55.942;37.314;2023-07-31T14:31:11;4.82;;;2.00;;
44137;SDS011;29800;55.942;37.314;2023-07-31T14:33:38;4.22;;;1.90;;
44137;SDS011;29800;55.942;37.314;2023-07-31T14:36:05;6.68;;;1.90;;
44137;SDS011;29800;55.942;37.314;2023-07-31T14:38:31;3.53;;;1.73;;
44137;SDS011;29800;55.942;37.314;2023-07-31T14:40:58;3.03;;;1.90;;
44137;SDS011;29800;55.942;37.314;2023-07-31T14:43:24;4.75;;;2.08;;
44137;SDS011;29800;55.942;37.314;2023-07-31T14:45:51;3.50;;;1.98;;
44137;SDS011;29800;55.942;37.314;2023-07-31T14:48:19;4.28;;;2.40;;